sensor_id;sensor_type;location;lat;lon;timestamp;P1;durP1;ratioP1;P2;durP2;ratioP2
52031;SDS011;38044;45.148;39.604;2023-01-15T00:01:25;50.05;;;22.95;;
52031;SDS011;38044;45.148;39.604;2023-01-15T00:03:53;48.17;;;23.15;;
52031;SDS011;38044;45.148;39.604;2023-01-15T00:06:21;51.50;;;23.98;;
52031;SDS011;38044;45.148;39.604;2023-01-15T00:08:47;55.22;;;24.33;;
52031;SDS011;38044;45.148;39.604;2023-01-15T00:11:14;50.88;;;24.33;;
52031;SDS011;38044;45.148;39.604;2023-01-15T00:13:40;47.40;;;23.25;;
52031;SDS011;38044;45.148;39.604;2023-01-15T00:16:13;56.13;;;23.65;;
52031;SDS011;38044;45.148;39.604;2023-01-15T00:18:41;53.70;;;24.92;;
52031;SDS011;38044;45.148;39.604;2023-01-15T00:21:08;48.90;;;25.20;;
52031;SDS011;38044;45.148;39.604;2023-01-15T00:23:36;55.20;;;25.38;;
52031;SDS011;38044;45.148;39.604;2023-01-15T00:26:21;47.22;;;23.95;;
52031;SDS011;38044;45.148;39.604;2023-01-15T00:29:09;48.10;;;23.40;;
52031;SDS011;38044;45.148;39.604;2023-01-15T00:31:35;46.08;;;23.25;;
52031;SDS011;38044;45.148;39.604;2023-01-15T00:34:01;51.15;;;23.90;;
52031;SDS011;38044;45.148;39.604;2023-01-15T00:36:27;47.67;;;23.85;;
52031;SDS011;38044;45.148;39.604;2023-01-15T00:38:53;50.17;;;24.40;;
52031;SDS011;38044;45.148;39.604;2023-01-15T00:41:19;50.05;;;23.13;;
52031;SDS011;38044;45.148;39.604;2023-01-15T00:43:45;48.40;;;23.77;;
52031;SDS011;38044;45.148;39.604;2023-01-15T00:46:11;50.95;;;24.45;;
52031;SDS011;38044;45.148;39.604;2023-01-15T00:48:37;46.92;;;22.77;;
52031;SDS011;38044;45.148;39.604;2023-01-15T00:51:03;50.30;;;24.08;;
52031;SDS011;38044;45.148;39.604;2023-01-15T00:53:29;50.55;;;23.50;;
52031;SDS011;38044;45.148;39.604;2023-01-15T00:55:56;48.58;;;24.95;;
52031;SDS011;38044;45.148;39.604;2023-01-15T00:58:21;52.03;;;23.67;;
52031;SDS011;38044;45.148;39.604;2023-01-15T01:00:56;51.90;;;23.90;;
52031;SDS011;38044;45.148;39.604;2023-01-15T01:03:25;52.83;;;23.83;;
52031;SDS011;38044;45.148;39.604;2023-01-15T01:05:51;49.92;;;23.73;;
52031;SDS011;38044;45.148;39.604;2023-01-15T01:08:17;48.13;;;23.67;;
52031;SDS011;38044;45.148;39.604;2023-01-15T01:10:44;46.78;;;22.98;;
52031;SDS011;38044;45.148;39.604;2023-01-15T01:13:10;49.88;;;22.55;;
52031;SDS011;38044;45.148;39.604;2023-01-15T01:15:36;51.53;;;24.35;;
52031;SDS011;38044;45.148;39.604;2023-01-15T01:18:03;51.22;;;23.75;;
52031;SDS011;38044;45.148;39.604;2023-01-15T01:20:30;46.00;;;22.80;;
52031;SDS011;38044;45.148;39.604;2023-01-15T01:22:56;47.05;;;22.90;;
52031;SDS011;38044;45.148;39.604;2023-01-15T01:25:22;52.90;;;23.85;;
52031;SDS011;38044;45.148;39.604;2023-01-15T01:27:48;56.38;;;23.58;;
52031;SDS011;38044;45.148;39.604;2023-01-15T01:30:14;48.88;;;22.70;;
52031;SDS011;38044;45.148;39.604;2023-01-15T01:32:43;49.90;;;22.88;;
52031;SDS011;38044;45.148;39.604;2023-01-15T01:35:10;50.25;;;23.75;;
52031;SDS011;38044;45.148;39.604;2023-01-15T01:37:36;53.42;;;24.17;;
52031;SDS011;38044;45.148;39.604;2023-01-15T01:40:02;51.47;;;22.65;;
52031;SDS011;38044;45.148;39.604;2023-01-15T01:42:29;41.55;;;22.10;;
52031;SDS011;38044;45.148;39.604;2023-01-15T01:45:12;50.25;;;23.50;;
52031;SDS011;38044;45.148;39.604;2023-01-15T01:47:56;46.10;;;22.50;;
52031;SDS011;38044;45.148;39.604;2023-01-15T01:50:26;45.70;;;22.65;;
52031;SDS011;38044;45.148;39.604;2023-01-15T01:52:58;45.00;;;23.40;;
52031;SDS011;38044;45.148;39.604;2023-01-15T01:55:26;48.50;;;22.40;;
52031;SDS011;38044;45.148;39.604;2023-01-15T01:57:55;46.15;;;23.13;;
52031;SDS011;38044;45.148;39.604;2023-01-15T02:00:24;41.58;;;21.92;;
52031;SDS011;38044;45.148;39.604;2023-01-15T02:02:50;48.13;;;22.98;;
52031;SDS011;38044;45.148;39.604;2023-01-15T02:05:20;51.80;;;23.35;;
52031;SDS011;38044;45.148;39.604;2023-01-15T02:07:52;41.65;;;22.80;;
52031;SDS011;38044;45.148;39.604;2023-01-15T02:10:18;47.03;;;23.00;;
52031;SDS011;38044;45.148;39.604;2023-01-15T02:12:45;46.25;;;22.88;;
52031;SDS011;38044;45.148;39.604;2023-01-15T02:15:33;46.67;;;21.63;;
52031;SDS011;38044;45.148;39.604;2023-01-15T02:21:11;47.72;;;22.25;;
52031;SDS011;38044;45.148;39.604;2023-01-15T02:30:05;41.42;;;20.67;;
52031;SDS011;38044;45.148;39.604;2023-01-15T02:32:19;47.90;;;21.88;;
52031;SDS011;38044;45.148;39.604;2023-01-15T02:34:55;50.53;;;22.85;;
52031;SDS011;38044;45.148;39.604;2023-01-15T02:37:27;42.38;;;21.20;;
52031;SDS011;38044;45.148;39.604;2023-01-15T02:39:56;43.88;;;21.00;;
52031;SDS011;38044;45.148;39.604;2023-01-15T02:42:26;41.75;;;20.52;;
52031;SDS011;38044;45.148;39.604;2023-01-15T02:44:54;40.50;;;21.10;;
52031;SDS011;38044;45.148;39.604;2023-01-15T02:47:25;38.53;;;19.25;;
52031;SDS011;38044;45.148;39.604;2023-01-15T02:49:56;42.80;;;20.40;;
52031;SDS011;38044;45.148;39.604;2023-01-15T02:52:26;37.42;;;19.95;;
52031;SDS011;38044;45.148;39.604;2023-01-15T02:54:57;40.40;;;20.27;;
52031;SDS011;38044;45.148;39.604;2023-01-15T02:57:29;38.77;;;20.27;;
52031;SDS011;38044;45.148;39.604;2023-01-15T02:59:57;36.35;;;19.20;;
52031;SDS011;38044;45.148;39.604;2023-01-15T03:02:29;33.20;;;18.40;;
52031;SDS011;38044;45.148;39.604;2023-01-15T03:05:16;36.33;;;19.65;;
52031;SDS011;38044;45.148;39.604;2023-01-15T03:07:47;37.28;;;18.45;;
52031;SDS011;38044;45.148;39.604;2023-01-15T03:10:17;39.53;;;19.75;;
52031;SDS011;38044;45.148;39.604;2023-01-15T03:12:48;35.17;;;18.75;;
52031;SDS011;38044;45.148;39.604;2023-01-15T03:18:16;39.97;;;19.38;;
52031;SDS011;38044;45.148;39.604;2023-01-15T03:20:47;38.05;;;19.05;;
52031;SDS011;38044;45.148;39.604;2023-01-15T03:23:16;37.92;;;18.20;;
52031;SDS011;38044;45.148;39.604;2023-01-15T03:25:45;38.30;;;18.63;;
52031;SDS011;38044;45.148;39.604;2023-01-15T03:28:14;34.15;;;18.67;;
52031;SDS011;38044;45.148;39.604;2023-01-15T03:30:46;36.80;;;19.15;;
52031;SDS011;38044;45.148;39.604;2023-01-15T03:33:12;36.17;;;18.88;;
52031;SDS011;38044;45.148;39.604;2023-01-15T03:38:20;36.25;;;19.90;;
52031;SDS011;38044;45.148;39.604;2023-01-15T03:41:04;37.55;;;19.38;;
52031;SDS011;38044;45.148;39.604;2023-01-15T03:46:24;36.28;;;17.92;;
52031;SDS011;38044;45.148;39.604;2023-01-15T03:49:30;36.70;;;19.58;;
52031;SDS011;38044;45.148;39.604;2023-01-15T03:52:31;38.63;;;18.83;;
52031;SDS011;38044;45.148;39.604;2023-01-15T03:55:09;36.13;;;18.40;;
52031;SDS011;38044;45.148;39.604;2023-01-15T03:57:50;34.38;;;18.92;;
52031;SDS011;38044;45.148;39.604;2023-01-15T04:02:52;34.28;;;19.33;;
52031;SDS011;38044;45.148;39.604;2023-01-15T04:05:21;30.80;;;18.52;;
52031;SDS011;38044;45.148;39.604;2023-01-15T04:07:49;33.40;;;18.58;;
52031;SDS011;38044;45.148;39.604;2023-01-15T04:10:17;33.35;;;18.02;;
52031;SDS011;38044;45.148;39.604;2023-01-15T04:12:43;33.72;;;18.40;;
52031;SDS011;38044;45.148;39.604;2023-01-15T04:15:09;35.65;;;18.60;;
52031;SDS011;38044;45.148;39.604;2023-01-15T04:17:36;34.97;;;18.83;;
52031;SDS011;38044;45.148;39.604;2023-01-15T04:20:03;31.90;;;17.73;;
52031;SDS011;38044;45.148;39.604;2023-01-15T04:22:29;36.58;;;19.23;;
52031;SDS011;38044;45.148;39.604;2023-01-15T04:24:55;37.63;;;17.88;;
52031;SDS011;38044;45.148;39.604;2023-01-15T04:27:21;33.75;;;19.02;;
52031;SDS011;38044;45.148;39.604;2023-01-15T04:29:47;33.00;;;17.73;;
52031;SDS011;38044;45.148;39.604;2023-01-15T04:32:13;31.85;;;18.17;;
52031;SDS011;38044;45.148;39.604;2023-01-15T04:34:39;34.40;;;18.65;;
52031;SDS011;38044;45.148;39.604;2023-01-15T04:37:05;35.05;;;18.40;;
52031;SDS011;38044;45.148;39.604;2023-01-15T04:39:31;38.22;;;18.35;;
52031;SDS011;38044;45.148;39.604;2023-01-15T04:41:57;33.47;;;17.95;;
52031;SDS011;38044;45.148;39.604;2023-01-15T04:44:41;34.22;;;18.15;;
52031;SDS011;38044;45.148;39.604;2023-01-15T04:47:07;33.55;;;18.00;;
52031;SDS011;38044;45.148;39.604;2023-01-15T04:49:33;32.88;;;18.13;;
52031;SDS011;38044;45.148;39.604;2023-01-15T04:52:00;35.50;;;18.23;;
52031;SDS011;38044;45.148;39.604;2023-01-15T04:54:26;34.88;;;18.40;;
52031;SDS011;38044;45.148;39.604;2023-01-15T04:56:53;33.80;;;17.92;;
52031;SDS011;38044;45.148;39.604;2023-01-15T04:59:21;34.35;;;17.77;;
52031;SDS011;38044;45.148;39.604;2023-01-15T05:01:49;33.30;;;18.00;;
52031;SDS011;38044;45.148;39.604;2023-01-15T05:04:15;32.67;;;17.05;;
52031;SDS011;38044;45.148;39.604;2023-01-15T05:06:41;32.63;;;17.33;;
52031;SDS011;38044;45.148;39.604;2023-01-15T05:09:08;30.83;;;17.20;;
52031;SDS011;38044;45.148;39.604;2023-01-15T05:11:35;33.10;;;17.27;;
52031;SDS011;38044;45.148;39.604;2023-01-15T05:14:03;32.97;;;17.92;;
52031;SDS011;38044;45.148;39.604;2023-01-15T05:16:29;32.72;;;17.65;;
52031;SDS011;38044;45.148;39.604;2023-01-15T05:18:58;35.40;;;18.13;;
52031;SDS011;38044;45.148;39.604;2023-01-15T05:21:30;33.65;;;17.42;;
52031;SDS011;38044;45.148;39.604;2023-01-15T05:23:57;34.28;;;18.17;;
52031;SDS011;38044;45.148;39.604;2023-01-15T05:26:24;30.17;;;16.55;;
52031;SDS011;38044;45.148;39.604;2023-01-15T05:28:53;30.45;;;16.20;;
52031;SDS011;38044;45.148;39.604;2023-01-15T05:31:20;31.67;;;16.48;;
52031;SDS011;38044;45.148;39.604;2023-01-15T05:33:46;27.77;;;15.75;;
52031;SDS011;38044;45.148;39.604;2023-01-15T05:36:15;27.08;;;15.98;;
52031;SDS011;38044;45.148;39.604;2023-01-15T05:38:43;32.92;;;16.05;;
52031;SDS011;38044;45.148;39.604;2023-01-15T05:41:12;27.70;;;16.05;;
52031;SDS011;38044;45.148;39.604;2023-01-15T05:43:59;26.95;;;15.40;;
52031;SDS011;38044;45.148;39.604;2023-01-15T05:46:26;25.58;;;14.30;;
52031;SDS011;38044;45.148;39.604;2023-01-15T05:48:52;27.45;;;14.25;;
52031;SDS011;38044;45.148;39.604;2023-01-15T05:51:18;22.40;;;12.93;;
52031;SDS011;38044;45.148;39.604;2023-01-15T05:53:44;22.48;;;12.98;;
52031;SDS011;38044;45.148;39.604;2023-01-15T05:56:10;23.98;;;12.30;;
52031;SDS011;38044;45.148;39.604;2023-01-15T05:58:36;23.70;;;12.07;;
52031;SDS011;38044;45.148;39.604;2023-01-15T06:01:06;25.48;;;11.57;;
52031;SDS011;38044;45.148;39.604;2023-01-15T06:03:33;23.60;;;12.75;;
52031;SDS011;38044;45.148;39.604;2023-01-15T06:06:00;25.30;;;11.93;;
52031;SDS011;38044;45.148;39.604;2023-01-15T06:08:26;23.27;;;11.57;;
52031;SDS011;38044;45.148;39.604;2023-01-15T06:10:52;24.23;;;12.07;;
52031;SDS011;38044;45.148;39.604;2023-01-15T06:13:17;29.40;;;11.77;;
52031;SDS011;38044;45.148;39.604;2023-01-15T06:15:43;21.40;;;12.50;;
52031;SDS011;38044;45.148;39.604;2023-01-15T06:18:09;21.48;;;11.85;;
52031;SDS011;38044;45.148;39.604;2023-01-15T06:20:36;23.98;;;11.95;;
52031;SDS011;38044;45.148;39.604;2023-01-15T06:23:03;24.02;;;12.30;;
52031;SDS011;38044;45.148;39.604;2023-01-15T06:25:28;22.55;;;11.65;;
52031;SDS011;38044;45.148;39.604;2023-01-15T06:27:59;20.23;;;11.45;;
52031;SDS011;38044;45.148;39.604;2023-01-15T06:30:26;21.63;;;11.60;;
52031;SDS011;38044;45.148;39.604;2023-01-15T06:32:52;24.58;;;11.70;;
52031;SDS011;38044;45.148;39.604;2023-01-15T06:35:18;23.75;;;11.40;;
52031;SDS011;38044;45.148;39.604;2023-01-15T06:37:44;23.08;;;11.80;;
52031;SDS011;38044;45.148;39.604;2023-01-15T06:40:10;18.10;;;10.68;;
52031;SDS011;38044;45.148;39.604;2023-01-15T06:42:36;20.00;;;11.35;;
52031;SDS011;38044;45.148;39.604;2023-01-15T06:45:20;21.98;;;11.27;;
52031;SDS011;38044;45.148;39.604;2023-01-15T06:48:05;21.88;;;11.75;;
52031;SDS011;38044;45.148;39.604;2023-01-15T06:50:32;19.45;;;11.43;;
52031;SDS011;38044;45.148;39.604;2023-01-15T06:52:58;23.92;;;11.60;;
52031;SDS011;38044;45.148;39.604;2023-01-15T06:55:23;22.27;;;11.75;;
52031;SDS011;38044;45.148;39.604;2023-01-15T06:57:51;22.90;;;11.00;;
52031;SDS011;38044;45.148;39.604;2023-01-15T07:00:19;17.65;;;11.05;;
52031;SDS011;38044;45.148;39.604;2023-01-15T07:02:45;20.13;;;11.07;;
52031;SDS011;38044;45.148;39.604;2023-01-15T07:05:12;21.10;;;10.85;;
52031;SDS011;38044;45.148;39.604;2023-01-15T07:07:37;19.48;;;11.40;;
52031;SDS011;38044;45.148;39.604;2023-01-15T07:10:03;20.98;;;11.07;;
52031;SDS011;38044;45.148;39.604;2023-01-15T07:12:30;20.08;;;11.60;;
52031;SDS011;38044;45.148;39.604;2023-01-15T07:14:59;21.65;;;11.25;;
52031;SDS011;38044;45.148;39.604;2023-01-15T07:17:25;20.90;;;10.77;;
52031;SDS011;38044;45.148;39.604;2023-01-15T07:19:51;28.77;;;12.10;;
52031;SDS011;38044;45.148;39.604;2023-01-15T07:22:16;18.33;;;11.52;;
52031;SDS011;38044;45.148;39.604;2023-01-15T07:24:42;21.88;;;11.15;;
52031;SDS011;38044;45.148;39.604;2023-01-15T07:27:08;18.48;;;11.45;;
52031;SDS011;38044;45.148;39.604;2023-01-15T07:29:34;21.50;;;11.88;;
52031;SDS011;38044;45.148;39.604;2023-01-15T07:32:00;17.42;;;11.27;;
52031;SDS011;38044;45.148;39.604;2023-01-15T07:34:25;26.80;;;11.38;;
52031;SDS011;38044;45.148;39.604;2023-01-15T07:36:51;21.27;;;11.20;;
52031;SDS011;38044;45.148;39.604;2023-01-15T07:39:17;18.38;;;11.27;;
52031;SDS011;38044;45.148;39.604;2023-01-15T07:41:43;23.10;;;11.63;;
52031;SDS011;38044;45.148;39.604;2023-01-15T07:44:27;18.42;;;11.30;;
52031;SDS011;38044;45.148;39.604;2023-01-15T07:47:14;23.52;;;11.05;;
52031;SDS011;38044;45.148;39.604;2023-01-15T07:50:07;15.45;;;10.65;;
52031;SDS011;38044;45.148;39.604;2023-01-15T07:52:37;17.67;;;10.55;;
52031;SDS011;38044;45.148;39.604;2023-01-15T07:55:03;25.20;;;10.93;;
52031;SDS011;38044;45.148;39.604;2023-01-15T07:57:29;17.40;;;10.07;;
52031;SDS011;38044;45.148;39.604;2023-01-15T07:59:55;19.75;;;10.60;;
52031;SDS011;38044;45.148;39.604;2023-01-15T08:02:21;19.75;;;10.98;;
52031;SDS011;38044;45.148;39.604;2023-01-15T08:04:47;18.17;;;10.50;;
52031;SDS011;38044;45.148;39.604;2023-01-15T08:07:13;19.63;;;12.35;;
52031;SDS011;38044;45.148;39.604;2023-01-15T08:09:39;20.50;;;13.18;;
52031;SDS011;38044;45.148;39.604;2023-01-15T08:12:05;14.70;;;10.60;;
52031;SDS011;38044;45.148;39.604;2023-01-15T08:14:50;20.35;;;11.30;;
52031;SDS011;38044;45.148;39.604;2023-01-15T08:17:35;19.58;;;10.93;;
52031;SDS011;38044;45.148;39.604;2023-01-15T08:20:06;16.05;;;11.57;;
52031;SDS011;38044;45.148;39.604;2023-01-15T08:22:40;18.95;;;12.65;;
52031;SDS011;38044;45.148;39.604;2023-01-15T08:25:07;21.70;;;12.70;;
52031;SDS011;38044;45.148;39.604;2023-01-15T08:27:35;20.95;;;13.13;;
52031;SDS011;38044;45.148;39.604;2023-01-15T08:30:03;19.55;;;12.75;;
52031;SDS011;38044;45.148;39.604;2023-01-15T08:32:30;21.80;;;13.30;;
52031;SDS011;38044;45.148;39.604;2023-01-15T08:34:56;19.40;;;13.07;;
52031;SDS011;38044;45.148;39.604;2023-01-15T08:37:22;20.08;;;12.73;;
52031;SDS011;38044;45.148;39.604;2023-01-15T08:39:47;17.52;;;12.20;;
52031;SDS011;38044;45.148;39.604;2023-01-15T08:42:15;22.75;;;13.02;;
52031;SDS011;38044;45.148;39.604;2023-01-15T08:44:41;25.13;;;13.45;;
52031;SDS011;38044;45.148;39.604;2023-01-15T08:47:07;25.85;;;14.90;;
52031;SDS011;38044;45.148;39.604;2023-01-15T08:49:33;24.05;;;13.27;;
52031;SDS011;38044;45.148;39.604;2023-01-15T08:51:59;24.77;;;14.95;;
52031;SDS011;38044;45.148;39.604;2023-01-15T08:54:25;28.60;;;15.48;;
52031;SDS011;38044;45.148;39.604;2023-01-15T08:56:51;27.00;;;14.98;;
52031;SDS011;38044;45.148;39.604;2023-01-15T08:59:17;23.48;;;14.45;;
52031;SDS011;38044;45.148;39.604;2023-01-15T09:01:45;28.15;;;15.15;;
52031;SDS011;38044;45.148;39.604;2023-01-15T09:04:15;26.35;;;14.48;;
52031;SDS011;38044;45.148;39.604;2023-01-15T09:06:42;25.48;;;14.35;;
52031;SDS011;38044;45.148;39.604;2023-01-15T09:09:09;25.67;;;14.43;;
52031;SDS011;38044;45.148;39.604;2023-01-15T09:11:35;26.65;;;13.70;;
52031;SDS011;38044;45.148;39.604;2023-01-15T09:14:04;25.33;;;14.18;;
52031;SDS011;38044;45.148;39.604;2023-01-15T09:16:34;24.90;;;13.43;;
52031;SDS011;38044;45.148;39.604;2023-01-15T09:19:01;22.08;;;13.02;;
52031;SDS011;38044;45.148;39.604;2023-01-15T09:21:29;24.73;;;13.82;;
52031;SDS011;38044;45.148;39.604;2023-01-15T09:23:55;27.02;;;13.60;;
52031;SDS011;38044;45.148;39.604;2023-01-15T09:26:24;21.40;;;11.50;;
52031;SDS011;38044;45.148;39.604;2023-01-15T09:28:50;20.17;;;12.18;;
52031;SDS011;38044;45.148;39.604;2023-01-15T09:31:16;17.48;;;10.88;;
52031;SDS011;38044;45.148;39.604;2023-01-15T09:33:42;19.23;;;11.93;;
52031;SDS011;38044;45.148;39.604;2023-01-15T09:36:17;24.33;;;12.38;;
52031;SDS011;38044;45.148;39.604;2023-01-15T09:39:01;24.60;;;14.07;;
52031;SDS011;38044;45.148;39.604;2023-01-15T09:44:47;21.15;;;12.82;;
52031;SDS011;38044;45.148;39.604;2023-01-15T09:55:46;22.73;;;13.02;;
52031;SDS011;38044;45.148;39.604;2023-01-15T09:58:15;23.13;;;14.07;;
52031;SDS011;38044;45.148;39.604;2023-01-15T10:00:45;18.13;;;12.07;;
52031;SDS011;38044;45.148;39.604;2023-01-15T10:06:06;20.55;;;13.45;;
52031;SDS011;38044;45.148;39.604;2023-01-15T10:08:46;20.67;;;13.23;;
52031;SDS011;38044;45.148;39.604;2023-01-15T10:13:42;21.08;;;14.35;;
52031;SDS011;38044;45.148;39.604;2023-01-15T10:16:13;27.55;;;15.38;;
52031;SDS011;38044;45.148;39.604;2023-01-15T10:18:46;22.10;;;14.23;;
52031;SDS011;38044;45.148;39.604;2023-01-15T10:24:08;22.05;;;14.90;;
52031;SDS011;38044;45.148;39.604;2023-01-15T10:26:57;23.75;;;14.15;;
52031;SDS011;38044;45.148;39.604;2023-01-15T10:35:00;25.00;;;16.83;;
52031;SDS011;38044;45.148;39.604;2023-01-15T10:37:44;24.40;;;15.90;;
52031;SDS011;38044;45.148;39.604;2023-01-15T10:40:24;26.48;;;16.73;;
52031;SDS011;38044;45.148;39.604;2023-01-15T10:43:11;25.58;;;16.65;;
52031;SDS011;38044;45.148;39.604;2023-01-15T10:45:50;26.80;;;17.75;;
52031;SDS011;38044;45.148;39.604;2023-01-15T10:50:53;25.42;;;15.65;;
52031;SDS011;38044;45.148;39.604;2023-01-15T10:53:43;24.77;;;15.70;;
52031;SDS011;38044;45.148;39.604;2023-01-15T10:56:20;23.10;;;14.60;;
52031;SDS011;38044;45.148;39.604;2023-01-15T11:01:32;24.92;;;14.98;;
52031;SDS011;38044;45.148;39.604;2023-01-15T11:03:58;29.25;;;15.90;;
52031;SDS011;38044;45.148;39.604;2023-01-15T11:06:25;24.70;;;15.90;;
52031;SDS011;38044;45.148;39.604;2023-01-15T11:08:55;24.70;;;15.90;;
52031;SDS011;38044;45.148;39.604;2023-01-15T11:17:43;29.02;;;16.95;;
52031;SDS011;38044;45.148;39.604;2023-01-15T11:20:32;24.45;;;16.50;;
52031;SDS011;38044;45.148;39.604;2023-01-15T11:23:09;25.45;;;15.90;;
52031;SDS011;38044;45.148;39.604;2023-01-15T11:25:38;29.17;;;17.23;;
52031;SDS011;38044;45.148;39.604;2023-01-15T11:28:17;28.60;;;17.67;;
52031;SDS011;38044;45.148;39.604;2023-01-15T11:30:56;27.48;;;17.17;;
52031;SDS011;38044;45.148;39.604;2023-01-15T11:33:24;27.83;;;17.42;;
52031;SDS011;38044;45.148;39.604;2023-01-15T11:35:53;30.92;;;18.80;;
52031;SDS011;38044;45.148;39.604;2023-01-15T11:38:22;31.33;;;18.30;;
52031;SDS011;38044;45.148;39.604;2023-01-15T11:41:22;32.67;;;19.25;;
52031;SDS011;38044;45.148;39.604;2023-01-15T11:44:15;33.17;;;20.23;;
52031;SDS011;38044;45.148;39.604;2023-01-15T11:47:01;38.63;;;22.00;;
52031;SDS011;38044;45.148;39.604;2023-01-15T11:49:50;32.63;;;20.05;;
52031;SDS011;38044;45.148;39.604;2023-01-15T11:52:40;35.60;;;20.58;;
52031;SDS011;38044;45.148;39.604;2023-01-15T11:55:11;37.97;;;20.65;;
52031;SDS011;38044;45.148;39.604;2023-01-15T11:57:39;33.25;;;20.55;;
52031;SDS011;38044;45.148;39.604;2023-01-15T12:00:06;39.13;;;21.90;;
52031;SDS011;38044;45.148;39.604;2023-01-15T12:02:44;39.30;;;22.27;;
52031;SDS011;38044;45.148;39.604;2023-01-15T12:05:20;34.90;;;20.70;;
52031;SDS011;38044;45.148;39.604;2023-01-15T12:07:49;36.87;;;20.93;;
52031;SDS011;38044;45.148;39.604;2023-01-15T12:10:18;37.60;;;22.05;;
52031;SDS011;38044;45.148;39.604;2023-01-15T12:13:33;58.30;;;32.28;;
52031;SDS011;38044;45.148;39.604;2023-01-15T12:24:34;35.58;;;21.92;;
52031;SDS011;38044;45.148;39.604;2023-01-15T12:27:23;38.50;;;22.80;;
52031;SDS011;38044;45.148;39.604;2023-01-15T12:30:18;41.60;;;22.63;;
52031;SDS011;38044;45.148;39.604;2023-01-15T12:32:53;40.83;;;23.55;;
52031;SDS011;38044;45.148;39.604;2023-01-15T12:35:29;39.72;;;22.42;;
52031;SDS011;38044;45.148;39.604;2023-01-15T12:41:20;47.35;;;23.08;;
52031;SDS011;38044;45.148;39.604;2023-01-15T12:43:42;43.22;;;24.13;;
52031;SDS011;38044;45.148;39.604;2023-01-15T12:46:34;49.67;;;25.45;;
52031;SDS011;38044;45.148;39.604;2023-01-15T12:49:05;39.10;;;23.15;;
52031;SDS011;38044;45.148;39.604;2023-01-15T12:55:01;45.80;;;23.50;;
52031;SDS011;38044;45.148;39.604;2023-01-15T12:57:34;43.20;;;23.50;;
52031;SDS011;38044;45.148;39.604;2023-01-15T13:00:04;51.83;;;24.88;;
52031;SDS011;38044;45.148;39.604;2023-01-15T13:02:59;39.97;;;23.30;;
52031;SDS011;38044;45.148;39.604;2023-01-15T13:05:40;40.60;;;22.60;;
52031;SDS011;38044;45.148;39.604;2023-01-15T13:08:26;38.72;;;24.00;;
52031;SDS011;38044;45.148;39.604;2023-01-15T13:10:53;41.00;;;23.52;;
52031;SDS011;38044;45.148;39.604;2023-01-15T13:13:23;45.97;;;23.52;;
52031;SDS011;38044;45.148;39.604;2023-01-15T13:16:13;48.53;;;24.08;;
52031;SDS011;38044;45.148;39.604;2023-01-15T13:21:39;40.75;;;22.75;;
52031;SDS011;38044;45.148;39.604;2023-01-15T13:32:18;46.50;;;23.95;;
52031;SDS011;38044;45.148;39.604;2023-01-15T13:39:51;51.08;;;27.95;;
52031;SDS011;38044;45.148;39.604;2023-01-15T13:42:27;50.20;;;26.83;;
52031;SDS011;38044;45.148;39.604;2023-01-15T13:45:01;46.17;;;25.77;;
52031;SDS011;38044;45.148;39.604;2023-01-15T13:47:29;47.10;;;24.67;;
52031;SDS011;38044;45.148;39.604;2023-01-15T13:49:59;40.15;;;23.73;;
52031;SDS011;38044;45.148;39.604;2023-01-15T13:52:32;71.07;;;30.92;;
52031;SDS011;38044;45.148;39.604;2023-01-15T13:57:41;129.52;;;49.75;;
52031;SDS011;38044;45.148;39.604;2023-01-15T14:00:59;131.15;;;54.58;;
52031;SDS011;38044;45.148;39.604;2023-01-15T14:05:57;131.20;;;52.58;;
52031;SDS011;38044;45.148;39.604;2023-01-15T14:08:26;198.55;;;78.43;;
52031;SDS011;38044;45.148;39.604;2023-01-15T14:11:00;131.18;;;53.55;;
52031;SDS011;38044;45.148;39.604;2023-01-15T14:21:40;264.95;;;113.72;;
52031;SDS011;38044;45.148;39.604;2023-01-15T14:35:24;54.67;;;30.15;;
52031;SDS011;38044;45.148;39.604;2023-01-15T14:37:56;59.08;;;28.90;;
52031;SDS011;38044;45.148;39.604;2023-01-15T14:40:31;62.75;;;30.50;;
52031;SDS011;38044;45.148;39.604;2023-01-15T14:43:00;52.13;;;28.13;;
52031;SDS011;38044;45.148;39.604;2023-01-15T14:45:35;53.78;;;27.75;;
52031;SDS011;38044;45.148;39.604;2023-01-15T14:50:47;49.10;;;25.73;;
52031;SDS011;38044;45.148;39.604;2023-01-15T14:53:25;50.28;;;25.75;;
52031;SDS011;38044;45.148;39.604;2023-01-15T15:03:57;54.28;;;28.35;;
52031;SDS011;38044;45.148;39.604;2023-01-15T15:09:37;53.50;;;27.33;;
52031;SDS011;38044;45.148;39.604;2023-01-15T15:12:43;52.53;;;27.40;;
52031;SDS011;38044;45.148;39.604;2023-01-15T15:23:52;50.25;;;29.02;;
52031;SDS011;38044;45.148;39.604;2023-01-15T15:26:23;54.25;;;29.30;;
52031;SDS011;38044;45.148;39.604;2023-01-15T15:29:01;51.80;;;29.63;;
52031;SDS011;38044;45.148;39.604;2023-01-15T15:31:32;60.03;;;31.63;;
52031;SDS011;38044;45.148;39.604;2023-01-15T15:34:00;57.42;;;31.75;;
52031;SDS011;38044;45.148;39.604;2023-01-15T15:36:27;54.15;;;29.60;;
52031;SDS011;38044;45.148;39.604;2023-01-15T15:38:58;61.35;;;31.50;;
52031;SDS011;38044;45.148;39.604;2023-01-15T15:41:39;56.90;;;31.17;;
52031;SDS011;38044;45.148;39.604;2023-01-15T15:47:25;63.03;;;31.25;;
52031;SDS011;38044;45.148;39.604;2023-01-15T15:50:25;60.25;;;31.92;;
52031;SDS011;38044;45.148;39.604;2023-01-15T15:52:54;58.22;;;29.95;;
52031;SDS011;38044;45.148;39.604;2023-01-15T15:55:22;63.80;;;33.88;;
52031;SDS011;38044;45.148;39.604;2023-01-15T15:57:53;66.78;;;32.95;;
52031;SDS011;38044;45.148;39.604;2023-01-15T16:00:30;66.07;;;34.08;;
52031;SDS011;38044;45.148;39.604;2023-01-15T16:03:00;66.40;;;35.08;;
52031;SDS011;38044;45.148;39.604;2023-01-15T16:05:41;63.47;;;34.33;;
52031;SDS011;38044;45.148;39.604;2023-01-15T16:10:39;58.90;;;34.20;;
52031;SDS011;38044;45.148;39.604;2023-01-15T16:13:05;60.05;;;33.65;;
52031;SDS011;38044;45.148;39.604;2023-01-15T16:15:37;61.13;;;35.75;;
52031;SDS011;38044;45.148;39.604;2023-01-15T16:18:05;67.70;;;36.53;;
52031;SDS011;38044;45.148;39.604;2023-01-15T16:20:43;63.10;;;38.22;;
52031;SDS011;38044;45.148;39.604;2023-01-15T16:23:23;63.08;;;33.97;;
52031;SDS011;38044;45.148;39.604;2023-01-15T16:25:58;52.65;;;30.48;;
52031;SDS011;38044;45.148;39.604;2023-01-15T16:28:28;52.72;;;31.55;;
52031;SDS011;38044;45.148;39.604;2023-01-15T16:31:08;55.42;;;31.45;;
52031;SDS011;38044;45.148;39.604;2023-01-15T16:33:35;50.25;;;30.02;;
52031;SDS011;38044;45.148;39.604;2023-01-15T16:36:04;53.10;;;30.35;;
52031;SDS011;38044;45.148;39.604;2023-01-15T16:38:32;55.83;;;29.83;;
52031;SDS011;38044;45.148;39.604;2023-01-15T16:41:15;49.67;;;29.92;;
52031;SDS011;38044;45.148;39.604;2023-01-15T16:43:54;53.90;;;31.17;;
52031;SDS011;38044;45.148;39.604;2023-01-15T16:46:23;47.60;;;28.55;;
52031;SDS011;38044;45.148;39.604;2023-01-15T16:49:16;54.42;;;29.15;;
52031;SDS011;38044;45.148;39.604;2023-01-15T16:51:47;53.38;;;29.85;;
52031;SDS011;38044;45.148;39.604;2023-01-15T16:56:59;52.05;;;29.13;;